createdAt,value
2022-07-29T00:02:36.891Z,53.32
2022-07-29T00:07:36.869Z,53.02
2022-07-29T00:12:36.681Z,51.99
2022-07-29T00:17:36.762Z,50.76
2022-07-29T00:22:36.594Z,52.39
2022-07-29T00:27:39.509Z,52.49
2022-07-29T00:32:36.440Z,53.32
2022-07-29T00:37:36.377Z,54.15
2022-07-29T00:42:36.278Z,54.75
2022-07-29T00:47:36.396Z,55.99
2022-07-29T00:52:36.165Z,55.79
2022-07-29T00:57:36.217Z,55.62
2022-07-29T01:02:36.256Z,56.42
2022-07-29T01:07:36.217Z,56.72
2022-07-29T01:12:36.132Z,57.23
2022-07-29T01:17:35.849Z,57.65
2022-07-29T01:22:35.931Z,58.26
2022-07-29T01:27:39.861Z,58.59
2022-07-29T01:32:35.699Z,57.05
2022-07-29T01:37:35.630Z,57.35
2022-07-29T01:42:35.553Z,57.56
2022-07-29T01:47:35.987Z,57.96
2022-07-29T01:52:43.093Z,57.86
2022-07-29T01:57:35.300Z,58.49
2022-07-29T02:02:35.258Z,58.89
2022-07-29T02:07:35.332Z,59.30
2022-07-29T02:12:35.242Z,59.83
2022-07-29T02:17:35.047Z,60.66
2022-07-29T02:22:34.974Z,60.57
2022-07-29T02:27:37.918Z,60.29
2022-07-29T02:32:34.829Z,61.13
2022-07-29T02:37:34.857Z,61.53
2022-07-29T02:42:34.856Z,60.69
2022-07-29T02:47:41.893Z,61.10
2022-07-29T02:52:35.554Z,61.96
2022-07-29T02:57:34.502Z,62.27
2022-07-29T03:02:34.533Z,63.01
2022-07-29T03:07:34.383Z,63.41
2022-07-29T03:12:34.461Z,63.71
2022-07-29T03:17:34.231Z,63.75
2022-07-29T03:22:34.178Z,64.55
2022-07-29T03:27:37.178Z,65.50
2022-07-29T03:32:34.168Z,66.54
2022-07-29T03:37:34.288Z,65.83
2022-07-29T03:42:34.554Z,65.50
2022-07-29T03:47:50.391Z,65.90
2022-07-29T03:52:34.855Z,65.70
2022-07-29T03:57:33.748Z,65.06
2022-07-29T04:02:33.689Z,65.16
2022-07-29T04:07:33.730Z,64.73
2022-07-29T04:12:33.509Z,64.83
2022-07-29T04:17:33.475Z,65.50
2022-07-29T04:22:33.433Z,64.79
2022-07-29T04:27:36.375Z,64.70
2022-07-29T04:32:33.203Z,64.70
2022-07-29T04:37:33.687Z,64.16
2022-07-29T04:42:33.077Z,63.12
2022-07-29T04:47:33.128Z,62.38
2022-07-29T04:52:32.935Z,62.48
2022-07-29T04:57:32.980Z,62.48
2022-07-29T05:02:33.053Z,62.68
2022-07-29T05:07:32.879Z,62.45
2022-07-29T05:12:32.717Z,62.32
2022-07-29T05:17:32.757Z,62.32
2022-07-29T05:22:32.549Z,62.49
2022-07-29T05:27:35.567Z,62.16
2022-07-29T05:32:32.425Z,61.16
2022-07-29T05:37:32.397Z,59.92
2022-07-29T05:42:32.307Z,60.80
2022-07-29T05:47:32.255Z,59.46
2022-07-29T05:52:32.303Z,57.01
2022-07-29T05:57:32.187Z,56.78
2022-07-29T06:02:32.018Z,56.91
2022-07-29T06:07:32.022Z,54.80
2022-07-29T06:12:31.885Z,53.22
2022-07-29T06:17:31.860Z,47.26
2022-07-29T06:22:31.774Z,47.38
2022-07-29T06:27:34.718Z,42.83
2022-07-29T06:32:31.693Z,42.83
2022-07-29T06:37:31.701Z,42.07
2022-07-29T06:42:31.545Z,40.52
2022-07-29T06:47:31.491Z,40.74
2022-07-29T06:52:31.354Z,40.12
2022-07-29T06:57:31.377Z,39.00
2022-07-29T07:02:39.147Z,40.07
2022-07-29T07:07:31.376Z,44.94
2022-07-29T07:12:31.209Z,42.23
2022-07-29T07:17:31.120Z,40.94
2022-07-29T07:22:33.461Z,38.19
2022-07-29T07:27:35.131Z,36.18
2022-07-29T07:32:30.879Z,38.29
2022-07-29T07:37:30.937Z,38.39
2022-07-29T07:42:30.796Z,39.26
2022-07-29T07:47:31.921Z,37.72
2022-07-29T07:52:30.626Z,39.18
2022-07-29T07:57:30.597Z,39.06
2022-07-29T08:02:30.557Z,39.99
2022-07-29T08:07:30.782Z,41.97
2022-07-29T08:12:30.652Z,42.39
2022-07-29T08:17:30.434Z,42.88
2022-07-29T08:22:31.292Z,42.69
2022-07-29T08:27:43.283Z,43.78
2022-07-29T08:32:52.501Z,41.63
2022-07-29T08:37:31.123Z,41.30
2022-07-29T08:42:30.027Z,40.55
2022-07-29T08:47:30.079Z,40.17
2022-07-29T08:52:29.887Z,40.50
2022-07-29T08:57:31.189Z,41.39
2022-07-29T09:02:29.752Z,41.99
2022-07-29T09:08:40.295Z,40.96
2022-07-29T09:13:40.473Z,40.66
2022-07-29T09:18:40.520Z,40.47
2022-07-29T09:23:40.062Z,40.37
2022-07-29T09:28:40.039Z,40.37
2022-07-29T09:33:39.942Z,40.80
2022-07-29T09:38:47.683Z,41.30
2022-07-29T09:43:39.952Z,40.20
2022-07-29T09:48:39.849Z,39.91
2022-07-29T14:45:21.540Z,37.67
2022-07-29T14:50:18.236Z,36.07
2022-07-29T14:56:37.655Z,34.47
2022-07-29T15:01:30.977Z,36.43
2022-07-29T15:06:29.647Z,34.39
2022-07-29T15:11:29.774Z,33.33
2022-07-29T15:16:29.623Z,34.24
2022-07-29T15:21:29.672Z,32.81
2022-07-29T15:26:29.384Z,34.01
2022-07-29T15:31:29.484Z,32.91
2022-07-29T15:36:51.062Z,34.54
2022-07-29T15:41:30.690Z,37.09
2022-07-29T15:46:34.618Z,39.54
2022-07-29T15:51:29.106Z,40.09
2022-07-29T15:56:29.413Z,40.43
2022-07-29T16:01:28.986Z,40.21
2022-07-29T16:06:29.139Z,38.91
2022-07-29T16:11:29.206Z,39.60
2022-07-29T16:16:28.862Z,40.08
2022-07-29T16:21:28.949Z,40.05
2022-07-29T16:26:28.643Z,41.45
2022-07-29T16:31:28.643Z,40.37
2022-07-29T16:36:28.601Z,40.88
2022-07-29T16:41:28.529Z,40.58
2022-07-29T16:46:31.505Z,42.97
2022-07-29T16:51:28.444Z,42.20
2022-07-29T16:56:30.552Z,41.51
2022-07-29T17:01:28.287Z,41.91
2022-07-29T17:06:28.120Z,42.00
2022-07-29T17:11:51.970Z,41.73
2022-07-29T17:16:29.058Z,42.24
2022-07-29T17:21:28.002Z,42.56
2022-07-29T17:26:28.290Z,43.07
2022-07-29T17:31:27.934Z,43.77
2022-07-29T17:36:35.609Z,43.98
2022-07-29T17:41:27.667Z,44.58
2022-07-29T17:46:31.012Z,45.00
2022-07-29T17:51:27.561Z,45.81
2022-07-29T17:56:28.219Z,45.81
2022-07-29T18:01:27.496Z,46.03
2022-07-29T18:06:27.769Z,46.35
2022-07-29T18:11:27.286Z,47.14
2022-07-29T18:16:27.295Z,47.86
2022-07-29T18:21:45.668Z,48.25
2022-07-29T18:26:30.478Z,50.09
2022-07-29T18:31:27.075Z,51.40
2022-07-29T18:36:26.996Z,52.74
2022-07-29T18:41:26.861Z,53.56
2022-07-29T18:46:30.085Z,53.56
2022-07-29T18:51:27.064Z,54.41
2022-07-29T18:56:26.893Z,54.71
2022-07-29T19:01:31.627Z,55.33
2022-07-29T19:06:27.826Z,54.73
2022-07-29T19:11:26.483Z,54.11
2022-07-29T19:16:26.575Z,54.11
2022-07-29T19:21:26.638Z,53.71
2022-07-29T19:26:26.511Z,53.71
2022-07-29T19:43:50.354Z,54.63
2022-07-29T19:48:12.629Z,54.86
2022-07-29T19:53:11.577Z,55.55
2022-07-29T19:58:11.510Z,57.07
2022-07-29T20:03:11.453Z,58.47
2022-07-29T20:08:13.830Z,59.59
2022-07-29T20:13:19.101Z,60.59
2022-07-29T20:18:11.218Z,61.55
2022-07-29T20:23:11.207Z,62.24
2022-07-29T20:28:11.107Z,62.54
2022-07-29T20:33:14.251Z,62.97
2022-07-29T20:38:13.949Z,63.57
2022-07-29T20:43:12.058Z,63.27
2022-07-29T20:48:10.871Z,63.47
2022-07-29T20:53:10.881Z,63.67
2022-07-29T20:58:10.978Z,63.87
2022-07-29T21:03:10.713Z,65.00
2022-07-29T21:08:10.548Z,66.23
2022-07-29T21:13:13.943Z,69.09
2022-07-29T21:18:10.483Z,70.12
2022-07-29T21:23:18.206Z,71.46
2022-07-29T21:28:17.755Z,71.59
2022-07-29T21:33:13.337Z,71.96
2022-07-29T21:38:10.161Z,72.16
2022-07-29T21:43:10.121Z,71.90
2022-07-29T21:48:10.026Z,72.00
2022-07-29T21:53:10.348Z,72.00
2022-07-29T21:58:10.131Z,71.70
2022-07-29T22:03:09.871Z,71.56
2022-07-29T22:08:09.765Z,71.16
2022-07-29T22:13:10.083Z,71.70
2022-07-29T22:18:09.762Z,71.16
2022-07-29T22:23:11.096Z,70.86
2022-07-29T22:28:09.489Z,70.56
2022-07-29T22:33:17.459Z,71.33
2022-07-29T22:38:10.395Z,71.36
2022-07-29T22:43:09.625Z,71.46
2022-07-29T22:48:09.229Z,71.16
2022-07-29T22:53:17.294Z,71.06
2022-07-29T22:58:09.843Z,72.60
2022-07-29T23:03:09.116Z,73.20
2022-07-29T23:08:09.048Z,74.24
2022-07-29T23:13:08.943Z,75.54
2022-07-29T23:19:19.468Z,75.48
2022-07-29T23:24:19.510Z,76.21
2022-07-29T23:29:19.551Z,76.72
2022-07-29T23:34:19.532Z,76.32
2022-07-29T23:39:19.549Z,76.72
2022-07-29T23:44:19.211Z,76.72
2022-07-29T23:49:19.162Z,77.02
2022-07-29T23:54:19.218Z,76.72
2022-07-29T23:59:18.960Z,76.72
